Time;durP1;ratioP1;P1;durP2;ratioP2;P2;SDS_P1;SDS_P2;PMS_P1;PMS_P2;Temp;Humidity;BMP_temperature;BMP_pressure;BME280_temperature;BME280_humidity;BME280_pressure;Samples;Min_cycle;Max_cycle;Signal;HPM_P1;HPM_P2
2022/10/01 00:01:03;;;;;;;;;;;;;;;20.01;77.87;97361.84;625939;226;64955;-73
2022/10/01 00:03:31;;;;;;;;;;;;;;;20.02;77.95;97363.44;625929;226;63901;-73
2022/10/01 00:06:03;;;;;;;;;;;;;;;20.01;77.95;97361.84;625925;226;67184;-73
2022/10/01 00:08:31;;;;;;;;;;;;;;;20.02;77.94;97367.98;625872;225;67816;-73
2022/10/01 00:11:01;;;;;;;;;;;;;;;20.01;78.04;97361.84;625993;226;65179;-73
2022/10/01 00:13:29;;;;;;;;;;;;;;;20.02;77.98;97373.31;625937;226;64615;-72
2022/10/01 00:15:58;;;;;;;;;;;;;;;20.02;77.97;97371.44;625888;226;64961;-72
2022/10/01 00:18:25;;;;;;;;;;;;;;;20.01;78.04;97371.72;625893;226;64844;-72
2022/10/01 00:20:53;;;;;;;;;;;;;;;20.02;78.00;97375.98;625895;226;67292;-72
2022/10/01 00:23:21;;;;;;;;;;;;;;;20.01;77.98;97367.18;625977;226;66888;-73
2022/10/01 00:25:51;;;;;;;;;;;;;;;20.02;78.00;97373.31;625978;226;64807;-73
2022/10/01 00:28:18;;;;;;;;;;;;;;;20.02;78.05;97373.31;625906;226;64907;-72
2022/10/01 00:30:48;;;;;;;;;;;;;;;20.01;78.04;97383.19;625910;226;65147;-73
2022/10/01 00:33:15;;;;;;;;;;;;;;;20.02;78.07;97381.31;625935;226;65945;-73
2022/10/01 00:35:43;;;;;;;;;;;;;;;20.02;78.07;97367.98;625931;226;64812;-73
2022/10/01 00:38:13;;;;;;;;;;;;;;;20.01;78.06;97361.84;625983;226;67019;-73
2022/10/01 00:40:41;;;;;;;;;;;;;;;20.01;78.05;97361.84;625921;226;65066;-73
2022/10/01 00:43:19;;;;;;;;;;;;;;;20.01;78.05;97356.51;625873;226;67056;-73
2022/10/01 00:45:47;;;;;;;;;;;;;;;20.02;78.13;97351.97;625937;226;66856;-73
2022/10/01 00:48:16;;;;;;;;;;;;;;;20.01;78.07;97343.17;625927;226;65060;-73
2022/10/01 00:50:44;;;;;;;;;;;;;;;20.01;78.12;97335.16;625984;226;64808;-72
2022/10/01 00:53:12;;;;;;;;;;;;;;;20.00;78.13;97333.56;625929;226;66912;-73
2022/10/01 00:55:41;;;;;;;;;;;;;;;20.01;78.13;97329.83;625890;226;65209;-73
2022/10/01 00:58:10;;;;;;;;;;;;;;;20.02;78.21;97333.30;625793;226;67156;-73
2022/10/01 01:00:39;;;;;;;;;;;;;;;20.01;78.14;97318.36;625931;226;64599;-73
2022/10/01 01:03:07;;;;;;;;;;;;;;;20.01;78.16;97327.16;625918;226;64932;-73
2022/10/01 01:05:35;;;;;;;;;;;;;;;20.01;78.22;97331.70;625960;226;67131;-73
2022/10/01 01:08:03;;;;;;;;;;;;;;;20.01;78.21;97324.49;625906;226;67344;-73
2022/10/01 01:10:32;;;;;;;;;;;;;;;20.01;78.26;97329.83;625861;226;63021;-73
2022/10/01 01:13:02;;;;;;;;;;;;;;;20.01;78.18;97321.83;625804;225;67215;-72
2022/10/01 01:15:34;;;;;;;;;;;;;;;20.01;78.22;97335.16;625842;226;66970;-73
2022/10/01 01:18:04;;;;;;;;;;;;;;;20.01;78.08;97337.03;624833;227;65928;-73
2022/10/01 01:20:50;;;;;;;;;;;;;;;20.02;78.16;97343.97;624769;227;65812;-73
2022/10/01 01:23:19;;;;;;;;;;;;;;;20.00;78.16;97338.91;624803;227;64549;-73
2022/10/01 01:25:58;;;;;;;;;;;;;;;20.01;78.21;97353.04;624829;227;62810;-72
2022/10/01 01:28:32;;;;;;;;;;;;;;;20.01;78.18;97348.50;624793;227;66711;-73
2022/10/01 01:31:01;;;;;;;;;;;;;;;20.01;78.14;97348.50;624806;227;66690;-73
2022/10/01 01:33:31;;;;;;;;;;;;;;;20.01;78.16;97345.84;624769;227;62857;-73
2022/10/01 01:36:00;;;;;;;;;;;;;;;20.01;78.24;97335.16;624820;227;67158;-73
2022/10/01 01:38:30;;;;;;;;;;;;;;;20.02;78.30;97338.63;624805;226;60233;-72
2022/10/01 01:40:59;;;;;;;;;;;;;;;20.01;78.25;97351.17;624780;227;63052;-73
2022/10/01 01:43:28;;;;;;;;;;;;;;;20.01;78.29;97350.38;624803;227;64532;-73
2022/10/01 01:45:58;;;;;;;;;;;;;;;20.00;78.18;97354.91;624786;227;66600;-73
2022/10/01 01:48:26;;;;;;;;;;;;;;;20.01;78.21;97350.38;624828;227;65094;-73
2022/10/01 01:50:56;;;;;;;;;;;;;;;20.00;78.21;97349.58;624803;227;64840;-73
2022/10/01 01:53:25;;;;;;;;;;;;;;;20.01;78.23;97347.70;624757;227;67208;-73
2022/10/01 01:55:53;;;;;;;;;;;;;;;20.01;78.33;97343.17;624772;227;62980;-73
2022/10/01 01:58:20;;;;;;;;;;;;;;;20.01;78.33;97337.83;624734;227;67047;-73
2022/10/01 02:00:51;;;;;;;;;;;;;;;20.00;78.22;97338.91;624756;227;65612;-73
2022/10/01 02:03:22;;;;;;;;;;;;;;;20.00;78.24;97330.07;624819;227;64888;-73
2022/10/01 02:06:00;;;;;;;;;;;;;;;20.00;78.21;97330.91;624784;227;67230;-74
2022/10/01 02:08:39;;;;;;;;;;;;;;;20.01;78.24;97345.03;624541;226;67057;-72
2022/10/01 02:11:14;;;;;;;;;;;;;;;20.01;78.21;97356.51;624780;227;65960;-73
2022/10/01 02:13:49;;;;;;;;;;;;;;;20.01;78.18;97345.03;624685;226;64937;-75
2022/10/01 02:16:33;;;;;;;;;;;;;;;20.01;78.21;97342.37;624546;226;65465;-74
2022/10/01 02:19:18;;;;;;;;;;;;;;;20.00;78.20;97341.57;624711;226;62799;-72
2022/10/01 02:21:56;;;;;;;;;;;;;;;20.00;78.27;97338.08;624824;227;67185;-72
2022/10/01 02:24:25;;;;;;;;;;;;;;;20.00;78.34;97333.56;624743;227;65062;-73
2022/10/01 02:26:54;;;;;;;;;;;;;;;19.99;78.29;97331.94;624756;226;63165;-73
2022/10/01 02:29:23;;;;;;;;;;;;;;;20.01;78.24;97339.70;624763;227;67104;-73
2022/10/01 02:31:54;;;;;;;;;;;;;;;20.00;78.39;97346.91;624751;227;67061;-73
2022/10/01 02:34:22;;;;;;;;;;;;;;;20.00;78.25;97338.08;624767;227;66026;-73
2022/10/01 02:36:51;;;;;;;;;;;;;;;19.99;78.27;97342.61;624805;227;67098;-73
2022/10/01 02:39:20;;;;;;;;;;;;;;;20.00;78.20;97338.91;624851;227;66720;-73
2022/10/01 02:41:50;;;;;;;;;;;;;;;20.00;78.19;97343.41;624818;226;64871;-72
2022/10/01 02:44:20;;;;;;;;;;;;;;;20.00;78.19;97348.75;624808;227;66690;-75
2022/10/01 02:46:51;;;;;;;;;;;;;;;20.00;78.13;97357.58;624848;227;64541;-75
2022/10/01 02:49:19;;;;;;;;;;;;;;;20.01;78.17;97355.70;624694;226;66028;-75
2022/10/01 02:51:48;;;;;;;;;;;;;;;20.00;78.18;97359.42;624810;227;67317;-75
2022/10/01 02:54:18;;;;;;;;;;;;;;;20.01;78.27;97358.38;624826;227;66622;-75
2022/10/01 02:59:32;;;;;;;;;;;;;;;20.01;78.20;97361.05;624818;227;66783;-76
2022/10/01 03:01:59;;;;;;;;;;;;;;;20.01;78.16;97359.17;624850;227;64598;-76
2022/10/01 03:04:27;;;;;;;;;;;;;;;20.00;78.09;97348.75;624866;227;66056;-76
2022/10/01 03:06:54;;;;;;;;;;;;;;;20.00;78.18;97340.74;624847;227;66848;-76
2022/10/01 03:09:22;;;;;;;;;;;;;;;20.00;78.07;97343.41;624808;227;66821;-76
2022/10/01 03:11:50;;;;;;;;;;;;;;;20.00;78.17;97338.08;624817;227;64900;-76
2022/10/01 03:14:17;;;;;;;;;;;;;;;20.00;78.16;97338.91;624806;227;65587;-76
2022/10/01 03:16:45;;;;;;;;;;;;;;;20.00;78.10;97343.41;625425;226;66911;-76
2022/10/01 03:19:13;;;;;;;;;;;;;;;20.00;78.17;97344.23;625955;226;62979;-76
2022/10/01 03:21:40;;;;;;;;;;;;;;;20.00;78.19;97354.08;625927;226;66928;-76
2022/10/01 03:24:08;;;;;;;;;;;;;;;20.00;78.07;97352.24;625940;226;66600;-76
2022/10/01 03:26:35;;;;;;;;;;;;;;;20.00;78.16;97360.24;625980;226;65123;-76
2022/10/01 03:29:04;;;;;;;;;;;;;;;20.00;78.17;97354.91;625965;226;66844;-76
2022/10/01 03:31:31;;;;;;;;;;;;;;;20.00;78.12;97354.91;626024;226;66554;-76
2022/10/01 03:33:59;;;;;;;;;;;;;;;20.00;78.20;97365.58;625946;226;62730;-76
2022/10/01 03:36:27;;;;;;;;;;;;;;;20.01;78.20;97366.38;625942;226;66792;-76
2022/10/01 03:38:55;;;;;;;;;;;;;;;20.01;78.13;97366.38;625923;224;67131;-76
2022/10/01 03:41:23;;;;;;;;;;;;;;;20.01;78.12;97379.72;625964;226;65140;-75
2022/10/01 03:43:50;;;;;;;;;;;;;;;20.01;78.13;97379.72;626010;226;64501;-76
2022/10/01 03:46:18;;;;;;;;;;;;;;;20.00;78.12;97370.91;625948;226;66837;-76
2022/10/01 03:48:45;;;;;;;;;;;;;;;20.01;78.34;97372.52;625922;226;65033;-76
2022/10/01 03:51:13;;;;;;;;;;;;;;;20.00;78.36;97376.25;625943;226;64548;-76
2022/10/01 03:53:40;;;;;;;;;;;;;;;20.01;78.25;97371.72;625970;226;66746;-76
2022/10/01 03:56:08;;;;;;;;;;;;;;;20.00;78.09;97378.92;626001;226;65966;-76
2022/10/01 03:58:35;;;;;;;;;;;;;;;20.00;78.22;97378.09;625963;226;66509;-76
2022/10/01 04:01:03;;;;;;;;;;;;;;;20.00;77.90;97370.91;625857;226;65387;-76
2022/10/01 04:03:30;;;;;;;;;;;;;;;20.01;78.26;97379.72;625938;226;64835;-76
2022/10/01 04:05:58;;;;;;;;;;;;;;;20.00;78.16;97378.09;626006;226;67189;-76
2022/10/01 04:08:25;;;;;;;;;;;;;;;20.00;78.31;97378.92;625949;226;66737;-76
2022/10/01 04:10:53;;;;;;;;;;;;;;;20.01;78.15;97377.05;625954;226;64960;-76
2022/10/01 04:13:20;;;;;;;;;;;;;;;20.00;78.22;97381.59;625957;226;66868;-76
2022/10/01 04:15:47;;;;;;;;;;;;;;;20.01;78.22;97379.72;625878;226;66882;-76
2022/10/01 04:18:16;;;;;;;;;;;;;;;20.00;78.26;97380.76;625991;226;66052;-76
2022/10/01 04:20:43;;;;;;;;;;;;;;;20.00;78.26;97373.59;625993;226;64652;-76
2022/10/01 04:23:11;;;;;;;;;;;;;;;19.99;78.25;97374.62;625939;226;64605;-76
2022/10/01 04:25:38;;;;;;;;;;;;;;;20.00;78.15;97373.59;625931;226;64849;-76
2022/10/01 04:28:07;;;;;;;;;;;;;;;20.00;78.30;97375.42;625933;226;66713;-76
2022/10/01 04:30:36;;;;;;;;;;;;;;;19.99;78.33;97374.62;625960;226;64740;-76
2022/10/01 04:33:05;;;;;;;;;;;;;;;20.00;78.35;97370.91;625941;226;65086;-76
2022/10/01 04:35:33;;;;;;;;;;;;;;;20.01;78.39;97366.38;625953;226;66748;-76
2022/10/01 04:38:02;;;;;;;;;;;;;;;20.00;78.43;97368.25;625912;226;66844;-76
2022/10/01 04:40:30;;;;;;;;;;;;;;;19.99;78.32;97374.62;625956;226;63223;-76
2022/10/01 04:42:58;;;;;;;;;;;;;;;20.00;78.27;97375.42;625915;226;65495;-75
2022/10/01 04:45:25;;;;;;;;;;;;;;;20.00;78.29;97370.91;626005;226;67174;-75
2022/10/01 04:47:54;;;;;;;;;;;;;;;19.99;78.33;97358.62;625931;226;64928;-76
2022/10/01 04:50:23;;;;;;;;;;;;;;;20.00;78.38;97357.58;625778;226;64291;-76
2022/10/01 04:52:51;;;;;;;;;;;;;;;20.00;78.21;97356.75;625911;225;66974;-76
2022/10/01 04:55:19;;;;;;;;;;;;;;;20.00;78.22;97354.08;625458;226;63128;-76
2022/10/01 04:57:48;;;;;;;;;;;;;;;19.99;78.19;97352.48;625813;226;65673;-75
2022/10/01 05:00:17;;;;;;;;;;;;;;;20.00;78.24;97343.41;625944;226;67570;-75
2022/10/01 05:02:45;;;;;;;;;;;;;;;19.99;78.23;97347.95;625947;226;64872;-76
2022/10/01 05:05:13;;;;;;;;;;;;;;;19.99;78.20;97347.95;625914;226;66900;-75
2022/10/01 05:07:41;;;;;;;;;;;;;;;19.99;78.09;97357.82;625955;226;66683;-76
2022/10/01 05:10:10;;;;;;;;;;;;;;;20.00;78.13;97351.41;625995;226;64855;-76
2022/10/01 05:12:38;;;;;;;;;;;;;;;19.99;78.13;97350.62;625939;226;67808;-76
2022/10/01 05:15:06;;;;;;;;;;;;;;;19.99;78.26;97334.61;625919;226;66694;-76
2022/10/01 05:17:34;;;;;;;;;;;;;;;19.99;78.14;97337.28;625883;226;65945;-75
2022/10/01 05:20:04;;;;;;;;;;;;;;;19.99;78.06;97337.28;625928;226;64914;-75
2022/10/01 05:22:31;;;;;;;;;;;;;;;20.00;77.99;97338.91;625892;226;64536;-76
2022/10/01 05:24:59;;;;;;;;;;;;;;;19.99;78.14;97331.94;625991;226;62796;-76
2022/10/01 05:27:27;;;;;;;;;;;;;;;19.99;78.15;97331.94;625935;226;64485;-76
2022/10/01 05:29:57;;;;;;;;;;;;;;;19.99;78.00;97342.61;625820;226;66916;-73
2022/10/01 05:32:24;;;;;;;;;;;;;;;19.99;77.90;97347.95;625957;226;62692;-73
2022/10/01 05:34:52;;;;;;;;;;;;;;;19.99;77.98;97363.16;625948;226;66581;-73
2022/10/01 05:37:19;;;;;;;;;;;;;;;20.00;78.15;97359.42;625999;226;66419;-73
2022/10/01 05:39:47;;;;;;;;;;;;;;;20.00;78.13;97365.58;625965;226;65097;-74
2022/10/01 05:42:14;;;;;;;;;;;;;;;19.99;78.20;97353.28;625948;226;66420;-74
2022/10/01 05:44:45;;;;;;;;;;;;;;;19.99;78.20;97334.61;625958;226;65144;-74
2022/10/01 05:47:12;;;;;;;;;;;;;;;20.00;78.22;97324.73;625960;225;62754;-73
2022/10/01 05:49:43;;;;;;;;;;;;;;;19.99;77.96;97333.81;625982;226;67332;-73
2022/10/01 05:52:14;;;;;;;;;;;;;;;19.98;77.80;97341.02;625940;226;67282;-73
2022/10/01 05:54:41;;;;;;;;;;;;;;;19.99;77.88;97341.81;625954;226;65147;-73
2022/10/01 05:57:09;;;;;;;;;;;;;;;19.99;77.96;97347.15;625923;226;66568;-73
2022/10/01 05:59:36;;;;;;;;;;;;;;;19.99;78.02;97353.28;625951;226;65069;-74
2022/10/01 06:02:04;;;;;;;;;;;;;;;19.99;78.02;97355.16;625902;226;64863;-73
2022/10/01 06:04:32;;;;;;;;;;;;;;;19.98;78.09;97365.02;625966;226;66657;-73
2022/10/01 06:07:01;;;;;;;;;;;;;;;19.98;78.14;97354.35;625932;226;66932;-73
2022/10/01 06:09:28;;;;;;;;;;;;;;;19.98;78.19;97335.68;625931;226;65150;-73
2022/10/01 06:11:55;;;;;;;;;;;;;;;19.99;78.09;97345.28;625968;224;67068;-73
2022/10/01 06:14:23;;;;;;;;;;;;;;;19.96;77.81;97338.59;625950;226;66624;-75
2022/10/01 06:16:54;;;;;;;;;;;;;;;19.96;77.42;97349.27;625315;226;64868;-75
2022/10/01 06:19:21;;;;;;;;;;;;;;;19.96;77.20;97348.47;624818;227;64578;-76
2022/10/01 06:21:49;;;;;;;;;;;;;;;19.98;77.03;97351.69;624836;227;64607;-75
2022/10/01 06:24:16;;;;;;;;;;;;;;;19.99;76.99;97350.62;624847;227;65079;-76
2022/10/01 06:26:47;;;;;;;;;;;;;;;19.99;76.90;97355.16;624814;227;66472;-76
2022/10/01 06:29:16;;;;;;;;;;;;;;;20.00;76.93;97362.91;624844;227;66772;-76
2022/10/01 06:31:43;;;;;;;;;;;;;;;19.99;76.91;97358.62;624801;227;64620;-75
2022/10/01 06:34:11;;;;;;;;;;;;;;;20.01;76.90;97359.17;624812;227;67106;-75
2022/10/01 06:36:38;;;;;;;;;;;;;;;20.01;76.88;97355.70;624810;227;66604;-75
2022/10/01 06:39:06;;;;;;;;;;;;;;;20.02;76.81;97359.97;624811;227;65921;-76
2022/10/01 06:41:33;;;;;;;;;;;;;;;20.01;76.77;97359.17;624841;227;66760;-76
2022/10/01 06:44:02;;;;;;;;;;;;;;;20.02;76.82;97363.44;624820;227;64336;-76
2022/10/01 06:46:30;;;;;;;;;;;;;;;20.03;76.98;97351.73;624794;227;64901;-75
2022/10/01 06:48:58;;;;;;;;;;;;;;;20.03;76.76;97348.27;621383;227;67118;-76
2022/10/01 06:54:13;;;;;;;;;;;;;;;20.03;76.82;97335.72;624759;227;63888;-75
2022/10/01 06:56:43;;;;;;;;;;;;;;;20.03;76.72;97341.05;624793;227;67242;-75
2022/10/01 06:59:10;;;;;;;;;;;;;;;20.03;76.74;97343.72;624798;227;67018;-75
2022/10/01 07:01:37;;;;;;;;;;;;;;;20.04;76.71;97341.85;624789;227;64883;-75
2022/10/01 07:04:05;;;;;;;;;;;;;;;20.04;76.66;97339.98;624795;227;64910;-75
2022/10/01 07:06:32;;;;;;;;;;;;;;;20.04;76.87;97336.52;624793;227;65109;-75
2022/10/01 07:09:00;;;;;;;;;;;;;;;20.03;76.66;97341.05;624840;227;65127;-75
2022/10/01 07:11:27;;;;;;;;;;;;;;;20.04;76.69;97333.84;624802;227;67024;-75
2022/10/01 07:13:56;;;;;;;;;;;;;;;20.05;76.76;97332.78;624804;227;67332;-75
2022/10/01 07:16:24;;;;;;;;;;;;;;;20.06;76.67;97337.88;625197;226;64988;-75
2022/10/01 07:18:52;;;;;;;;;;;;;;;20.05;76.70;97338.94;625925;226;67036;-75
2022/10/01 07:21:20;;;;;;;;;;;;;;;20.04;76.80;97323.98;625861;226;66010;-75
2022/10/01 07:23:48;;;;;;;;;;;;;;;20.05;76.78;97320.27;625973;226;63027;-75
2022/10/01 07:26:15;;;;;;;;;;;;;;;20.06;76.71;97305.06;625927;226;67076;-75
2022/10/01 07:28:43;;;;;;;;;;;;;;;20.05;76.85;97282.92;625939;226;66846;-75
2022/10/01 07:31:12;;;;;;;;;;;;;;;20.06;76.79;97297.85;625937;226;64927;-75
2022/10/01 07:33:40;;;;;;;;;;;;;;;20.06;76.74;97321.86;625892;226;64834;-75
2022/10/01 07:36:09;;;;;;;;;;;;;;;20.06;76.81;97319.20;625996;226;67235;-73
2022/10/01 07:38:38;;;;;;;;;;;;;;;20.07;76.85;97309.32;625945;226;62820;-73
2022/10/01 07:41:07;;;;;;;;;;;;;;;20.06;76.85;97305.86;626005;225;47564;-72
2022/10/01 07:43:35;;;;;;;;;;;;;;;20.06;76.79;97300.52;625939;226;66943;-73
2022/10/01 07:46:04;;;;;;;;;;;;;;;20.07;76.87;97312.79;625846;226;64020;-75
2022/10/01 07:48:32;;;;;;;;;;;;;;;20.07;76.93;97290.64;625996;226;68193;-75
2022/10/01 07:50:59;;;;;;;;;;;;;;;20.07;76.92;97307.45;625937;226;66851;-75
2022/10/01 07:53:27;;;;;;;;;;;;;;;20.07;76.92;97301.31;625896;226;64905;-74
2022/10/01 07:55:59;;;;;;;;;;;;;;;20.06;76.87;97303.19;625927;226;65727;-75
2022/10/01 07:58:24;;;;;;;;;;;;;;;20.07;76.83;97302.12;625635;226;64764;-75
2022/10/01 08:00:57;;;;;;;;;;;;;;;20.08;76.84;97302.91;625947;226;62764;-74
2022/10/01 08:03:20;;;;;;;;;;;;;;;20.08;76.75;97302.91;625876;226;64818;-74
2022/10/01 08:05:48;;;;;;;;;;;;;;;20.08;76.85;97311.74;625922;226;66951;-74
2022/10/01 08:08:18;;;;;;;;;;;;;;;20.07;76.82;97307.45;625929;226;62749;-75
2022/10/01 08:10:45;;;;;;;;;;;;;;;20.08;76.79;97316.25;625930;226;64781;-75
2022/10/01 08:13:14;;;;;;;;;;;;;;;20.08;76.76;97310.92;625903;226;67762;-75
2022/10/01 08:15:45;;;;;;;;;;;;;;;20.08;76.86;97303.74;625923;226;62750;-75
2022/10/01 08:18:13;;;;;;;;;;;;;;;20.08;76.81;97290.40;625935;226;67019;-75
2022/10/01 08:20:41;;;;;;;;;;;;;;;20.07;76.84;97291.45;625914;226;64872;-75
2022/10/01 08:23:09;;;;;;;;;;;;;;;20.08;76.84;97293.07;625904;226;65995;-75
2022/10/01 08:25:37;;;;;;;;;;;;;;;20.08;76.83;97289.58;625906;226;67063;-75
2022/10/01 08:28:05;;;;;;;;;;;;;;;20.08;76.90;97293.07;625978;226;64643;-75
2022/10/01 08:30:33;;;;;;;;;;;;;;;20.09;76.83;97296.53;625895;226;66167;-75
2022/10/01 08:33:02;;;;;;;;;;;;;;;20.09;76.85;97291.20;625884;226;67039;-75
2022/10/01 08:35:30;;;;;;;;;;;;;;;20.09;76.80;97293.87;625901;226;65426;-75
2022/10/01 08:38:02;;;;;;;;;;;;;;;20.09;76.86;97296.53;625905;226;62795;-75
2022/10/01 08:40:30;;;;;;;;;;;;;;;20.09;76.87;97283.99;625748;225;64837;-74
2022/10/01 08:42:59;;;;;;;;;;;;;;;20.08;76.93;97293.07;625982;226;67071;-75
2022/10/01 08:45:30;;;;;;;;;;;;;;;20.09;76.87;97278.66;625903;226;63020;-75
2022/10/01 08:48:08;;;;;;;;;;;;;;;20.08;76.90;97273.56;625791;226;65804;-75
2022/10/01 08:50:38;;;;;;;;;;;;;;;20.08;76.92;97271.73;625790;226;66888;-75
2022/10/01 08:53:07;;;;;;;;;;;;;;;20.09;76.91;97256.52;625261;226;64883;-75
2022/10/01 08:55:36;;;;;;;;;;;;;;;20.09;76.92;97256.52;625875;226;67648;-75
2022/10/01 08:58:05;;;;;;;;;;;;;;;20.08;76.90;97255.72;625902;226;66843;-74
2022/10/01 09:00:37;;;;;;;;;;;;;;;20.09;76.92;97259.98;625655;226;65240;-75
2022/10/01 09:03:05;;;;;;;;;;;;;;;20.09;76.98;97267.98;625927;226;65027;-76
2022/10/01 09:05:40;;;;;;;;;;;;;;;20.10;76.97;97268.78;625910;226;67221;-76
2022/10/01 09:08:21;;;;;;;;;;;;;;;20.09;76.92;97273.31;625671;226;63835;-75
2022/10/01 09:10:59;;;;;;;;;;;;;;;20.09;76.96;97267.98;625862;226;65803;-75
2022/10/01 09:13:34;;;;;;;;;;;;;;;20.10;76.96;97272.25;625974;226;65754;-72
2022/10/01 09:16:09;;;;;;;;;;;;;;;20.10;77.02;97266.11;625851;226;62969;-72
2022/10/01 09:18:38;;;;;;;;;;;;;;;20.09;76.95;97272.52;625795;226;67884;-73
2022/10/01 09:21:07;;;;;;;;;;;;;;;20.09;76.98;97265.31;625729;226;66939;-73
2022/10/01 09:23:35;;;;;;;;;;;;;;;20.10;76.97;97263.45;625757;226;66033;-73
2022/10/01 09:26:04;;;;;;;;;;;;;;;20.09;77.01;97267.98;625829;226;65089;-73
2022/10/01 09:28:34;;;;;;;;;;;;;;;20.11;76.97;97259.73;625782;226;48638;-73
2022/10/01 09:31:21;;;;;;;;;;;;;;;20.10;77.00;97263.45;625918;226;65234;-73
2022/10/01 09:33:50;;;;;;;;;;;;;;;20.09;77.04;97262.64;625894;225;64794;-73
2022/10/01 09:36:19;;;;;;;;;;;;;;;20.10;77.04;97269.58;625900;226;66966;-73
2022/10/01 09:38:49;;;;;;;;;;;;;;;20.10;77.07;97272.25;625689;226;64924;-73
2022/10/01 09:41:17;;;;;;;;;;;;;;;20.10;77.10;97258.11;624953;226;67209;-73
2022/10/01 09:43:46;;;;;;;;;;;;;;;20.10;77.16;97256.23;625974;226;64280;-73
2022/10/01 09:46:16;;;;;;;;;;;;;;;20.10;77.14;97253.57;625926;226;62975;-73
2022/10/01 09:48:45;;;;;;;;;;;;;;;20.10;77.12;97250.91;625905;226;64497;-73
2022/10/01 09:51:21;;;;;;;;;;;;;;;20.10;77.09;97248.23;621089;226;64891;-73
2022/10/01 09:54:02;;;;;;;;;;;;;;;20.11;77.08;97257.86;625938;226;62861;-74
2022/10/01 09:56:32;;;;;;;;;;;;;;;20.11;77.16;97257.06;625931;226;64549;-73
2022/10/01 09:59:01;;;;;;;;;;;;;;;20.11;77.15;97257.86;625870;225;67654;-73
2022/10/01 10:01:33;;;;;;;;;;;;;;;20.11;77.16;97260.53;625796;226;62834;-73
2022/10/01 10:04:00;;;;;;;;;;;;;;;20.11;77.17;97257.86;621490;226;66752;-73
2022/10/01 10:06:30;;;;;;;;;;;;;;;20.11;77.14;97255.20;625924;226;64855;-73
2022/10/01 10:08:59;;;;;;;;;;;;;;;20.11;77.16;97260.53;626001;226;65039;-73
2022/10/01 10:11:30;;;;;;;;;;;;;;;20.12;77.15;97261.33;625906;226;66931;-73
2022/10/01 10:13:59;;;;;;;;;;;;;;;20.11;77.17;97257.86;625882;226;67110;-73
2022/10/01 10:16:33;;;;;;;;;;;;;;;20.12;77.18;97253.33;625844;226;64906;-73
2022/10/01 10:19:09;;;;;;;;;;;;;;;20.13;77.20;97262.92;625923;226;66091;-73
2022/10/01 10:21:37;;;;;;;;;;;;;;;20.12;77.18;97267.47;625707;226;66863;-73
2022/10/01 10:24:11;;;;;;;;;;;;;;;20.12;77.15;97267.47;625952;226;66004;-73
2022/10/01 10:26:43;;;;;;;;;;;;;;;20.12;77.20;97278.14;625874;226;45902;-72
2022/10/01 10:29:12;;;;;;;;;;;;;;;20.12;77.16;97278.14;625637;226;66869;-73
2022/10/01 10:31:44;;;;;;;;;;;;;;;20.12;77.18;97288.01;625511;226;64942;-72
2022/10/01 10:34:19;;;;;;;;;;;;;;;20.14;77.22;97301.91;625917;226;66915;-73
2022/10/01 10:36:47;;;;;;;;;;;;;;;20.12;77.21;97296.81;625770;226;67107;-73
2022/10/01 10:39:16;;;;;;;;;;;;;;;20.13;77.28;97300.28;625928;226;65160;-73
2022/10/01 10:41:45;;;;;;;;;;;;;;;20.12;77.22;97302.15;625485;225;67183;-73
2022/10/01 10:44:18;;;;;;;;;;;;;;;20.14;77.23;97309.91;625892;226;66908;-73
2022/10/01 10:46:46;;;;;;;;;;;;;;;20.13;77.22;97305.61;625891;226;65341;-73
2022/10/01 10:49:22;;;;;;;;;;;;;;;20.12;77.22;97304.81;625866;224;64316;-73
2022/10/01 10:51:52;;;;;;;;;;;;;;;20.14;77.22;97302.70;625944;226;66936;-73
2022/10/01 10:54:22;;;;;;;;;;;;;;;20.13;77.29;97295.77;625945;226;65341;-73
2022/10/01 10:56:54;;;;;;;;;;;;;;;20.13;77.24;97303.78;625883;226;67167;-73
2022/10/01 10:59:23;;;;;;;;;;;;;;;20.14;77.26;97296.56;625776;225;64608;-73
2022/10/01 11:01:51;;;;;;;;;;;;;;;20.13;77.26;97308.28;625910;226;62827;-74
2022/10/01 11:04:20;;;;;;;;;;;;;;;20.13;77.29;97309.11;625903;226;67123;-73
2022/10/01 11:06:56;;;;;;;;;;;;;;;20.14;77.31;97318.71;625745;226;67257;-73
2022/10/01 11:09:25;;;;;;;;;;;;;;;20.13;77.29;97306.44;625920;226;62994;-73
2022/10/01 11:11:57;;;;;;;;;;;;;;;20.14;77.32;97302.70;625897;226;64770;-74
2022/10/01 11:14:44;;;;;;;;;;;;;;;20.14;77.33;97283.23;625808;226;64919;-72
2022/10/01 11:17:32;;;;;;;;;;;;;;;20.14;77.34;97276.02;624933;226;66025;-73
2022/10/01 11:20:17;;;;;;;;;;;;;;;20.14;77.33;97267.22;617274;229;64933;-73
2022/10/01 11:22:46;;;;;;;;;;;;;;;20.14;77.38;97248.54;617300;229;66862;-73
2022/10/01 11:25:21;;;;;;;;;;;;;;;20.14;77.37;97261.88;620924;226;65095;-73
2022/10/01 11:28:06;;;;;;;;;;;;;;;20.14;77.36;97281.36;624681;226;64642;-73
2022/10/01 11:30:41;;;;;;;;;;;;;;;20.15;77.36;97276.81;624777;227;67163;-73
2022/10/01 11:33:11;;;;;;;;;;;;;;;20.14;77.34;97269.89;624708;226;62729;-75
2022/10/01 11:35:54;;;;;;;;;;;;;;;20.14;77.42;97262.68;624768;227;67349;-75
2022/10/01 11:38:23;;;;;;;;;;;;;;;20.14;77.43;97244.00;624742;226;65036;-75
2022/10/01 11:40:55;;;;;;;;;;;;;;;20.14;77.41;97244.00;624623;226;63055;-75
2022/10/01 11:43:27;;;;;;;;;;;;;;;20.15;77.42;97256.27;624561;226;64877;-75
2022/10/01 11:45:56;;;;;;;;;;;;;;;20.14;77.37;97270.68;624061;226;66905;-75
2022/10/01 11:48:31;;;;;;;;;;;;;;;20.15;77.36;97272.28;624749;226;65061;-75
2022/10/01 11:51:00;;;;;;;;;;;;;;;20.14;77.38;97249.34;624564;226;67156;-76
2022/10/01 11:53:32;;;;;;;;;;;;;;;20.15;77.45;97231.45;624795;227;67643;-75
2022/10/01 11:58:51;;;;;;;;;;;;;;;20.15;77.44;97226.92;624808;227;66927;-75
2022/10/01 12:01:21;;;;;;;;;;;;;;;20.15;77.38;97234.92;624782;227;64879;-75
2022/10/01 12:03:50;;;;;;;;;;;;;;;20.14;77.39;97233.33;624638;226;62892;-76
2022/10/01 12:06:20;;;;;;;;;;;;;;;20.15;77.38;97234.92;622467;227;64823;-75
2022/10/01 12:08:49;;;;;;;;;;;;;;;20.16;77.42;97212.53;624545;226;66921;-76
2022/10/01 12:11:22;;;;;;;;;;;;;;;20.16;77.43;97195.69;624790;227;65124;-75
2022/10/01 12:13:54;;;;;;;;;;;;;;;20.16;77.38;97207.20;624751;226;67985;-76
2022/10/01 12:16:31;;;;;;;;;;;;;;;20.16;77.39;97215.20;624612;226;63945;-76
2022/10/01 12:19:00;;;;;;;;;;;;;;;20.18;77.31;97223.72;624710;226;62733;-76
2022/10/01 12:21:29;;;;;;;;;;;;;;;20.16;77.34;97220.53;624730;226;65818;-75
2022/10/01 12:23:58;;;;;;;;;;;;;;;20.17;77.35;97210.66;624585;226;65104;-76
2022/10/01 12:26:36;;;;;;;;;;;;;;;20.17;77.32;97211.45;624662;226;63753;-76
2022/10/01 12:29:14;;;;;;;;;;;;;;;20.17;77.39;97183.98;624834;227;64911;-75
2022/10/01 12:31:55;;;;;;;;;;;;;;;20.16;77.37;97167.17;624740;227;66650;-75
2022/10/01 12:34:41;;;;;;;;;;;;;;;20.17;77.37;97168.77;624777;227;65071;-75
2022/10/01 12:37:13;;;;;;;;;;;;;;;20.16;77.37;97172.51;624774;227;65247;-76
2022/10/01 12:39:42;;;;;;;;;;;;;;;20.17;77.40;97179.44;624625;226;66962;-76
2022/10/01 12:42:20;;;;;;;;;;;;;;;20.17;77.36;97183.98;624663;226;63620;-75
2022/10/01 12:44:53;;;;;;;;;;;;;;;20.17;77.38;97179.44;624771;227;67719;-75
2022/10/01 12:47:37;;;;;;;;;;;;;;;20.17;77.39;97159.96;624846;227;66864;-75
2022/10/01 12:50:09;;;;;;;;;;;;;;;20.16;77.46;97145.83;624808;227;62839;-78
2022/10/01 12:52:50;;;;;;;;;;;;;;;20.18;77.40;97149.02;624749;227;67404;-76
2022/10/01 12:55:19;;;;;;;;;;;;;;;20.17;77.42;97158.09;624605;226;64687;-75
2022/10/01 12:57:51;;;;;;;;;;;;;;;20.17;77.40;97158.09;624729;226;65368;-76
2022/10/01 13:00:21;;;;;;;;;;;;;;;20.17;77.42;97151.95;624779;227;68013;-75
2022/10/01 13:02:50;;;;;;;;;;;;;;;20.17;77.46;97144.75;624788;227;64844;-75
2022/10/01 13:05:36;;;;;;;;;;;;;;;20.17;77.47;97131.41;624844;227;63601;-76
2022/10/01 13:08:08;;;;;;;;;;;;;;;20.18;77.46;97129.53;624819;227;67198;-75
2022/10/01 13:10:52;;;;;;;;;;;;;;;20.18;77.39;97133.00;624799;227;66915;-75